Hauptseite
METAR-TAF:

METAR-TAF

Flughäfen :

Georgetown, Ascension

Flugfeld Wideawake

Breite: 07-58S, Länge: 014-24W, Höhe: 86 m

Beobachtung

Neuester Wetterbericht von vor 1 Stunde und 2 Minuten, um 10:50 UTC
Wind 15 kt aus Südost
Temperatur 29°C
Luftfeuchtigkeit 70%
Luftdruck 1013 hPa
Sichtweite 10 km oder mehr
Leicht bewölkt in der Höhe von 1500 ft
Durchbrochene Bewölkung in der Höhe von 40000 ft

METAR: FHAW 281050Z 13015KT 9999 FEW015 BKN400 29/23 Q1013 BLU TEMPO SCT015 WHT

Zeit: 11:52 (11:52 UTC)

Prognose

Neuester Wetterbericht von vor 1 Stunde und 22 Minuten, um 10:30 UTC
Gültige Prognose vom 28 um 12 UTC bis 29 um 06 UTC
Wind 15 kt aus Südost
Sichtweite 10 km oder mehr
Leicht bewölkt in der Höhe von 1600 ft
Wahrscheinlichkeit 40% :
Zeitweise
vom 28 um 12 UTC bis 29 um 06 UTC
Aufgelockert bewölkt in der Höhe von 1600 ft

TAF: FHAW 281030Z 2812/2906 14015KT 9999 FEW016 PROB40 TEMPO 2812/2906 SCT016

Wetterbeobachtungen und Prognosen von mehr als 4000 Flughäfen (METAR und TAF Bericht).

Die verfügbaren Stationen werden durch gelbe und rote Markierungen auf der Karte dargestellt.

Führen Sie die Maus auf sie, um den Namen der Station zu sehen.

Darauf klicken, um die Beobachtung von Wetterbeobachtungen und Prognosen zu sehen.

Um die Karte zu ändern : klicken Sie auf den grünen Tasten mit einem schwarzen Kreuz Zum Vergrößern, auf den grünen Button mit einem Gedankenstrich zu verkleinern, oder auf die grünen Pfeile für benachbarte Karten.


METAR-TAF: